Time;durP1;ratioP1;P1;durP2;ratioP2;P2;SDS_P1;SDS_P2;PMS_P1;PMS_P2;Temp;Humidity;BMP_temperature;BMP_pressure;BME280_temperature;BME280_humidity;BME280_pressure;Samples;Min_cycle;Max_cycle;Signal;HPM_P1;HPM_P2
2024/02/05 00:01:47;;;;;;;11.73;3.50;;;;;;;;;;5113528;28;20694;-85
2024/02/05 00:04:14;;;;;;;13.20;3.70;;;;;;;;;;5113147;28;20565;-82
2024/02/05 00:06:40;;;;;;;23.97;4.10;;;;;;;;;;5113511;28;20415;-83
2024/02/05 00:09:07;;;;;;;19.37;3.23;;;;;;;;;;5113401;28;20525;-82
2024/02/05 00:11:35;;;;;;;15.17;3.40;;;;;;;;;;5113494;28;20461;-83
2024/02/05 00:14:02;;;;;;;13.77;3.87;;;;;;;;;;5113354;28;20431;-81
2024/02/05 00:16:28;;;;;;;20.53;5.00;;;;;;;;;;5113332;28;20407;-83
2024/02/05 00:18:54;;;;;;;17.13;4.33;;;;;;;;;;5112985;28;20417;-86
2024/02/05 00:21:20;;;;;;;19.83;5.70;;;;;;;;;;5113073;28;20538;-83
2024/02/05 00:23:46;;;;;;;16.13;3.97;;;;;;;;;;5113300;28;20416;-84
2024/02/05 00:26:11;;;;;;;14.53;5.03;;;;;;;;;;5112744;28;20650;-82
2024/02/05 00:28:37;;;;;;;14.20;3.50;;;;;;;;;;5113457;28;20564;-83
2024/02/05 00:31:03;;;;;;;15.80;4.33;;;;;;;;;;5113521;28;20167;-83
2024/02/05 00:33:29;;;;;;;13.53;3.57;;;;;;;;;;5113158;28;20776;-82
2024/02/05 00:35:55;;;;;;;13.10;3.20;;;;;;;;;;5113196;28;20455;-83
2024/02/05 00:38:21;;;;;;;12.20;3.20;;;;;;;;;;5087472;28;20264;-84
2024/02/05 00:40:48;;;;;;;18.13;2.93;;;;;;;;;;5091828;28;20407;-83
2024/02/05 00:43:14;;;;;;;25.27;5.00;;;;;;;;;;5090935;28;20419;-82
2024/02/05 00:45:40;;;;;;;18.47;4.10;;;;;;;;;;5091026;28;20411;-82
2024/02/05 00:48:06;;;;;;;17.40;4.10;;;;;;;;;;5109329;28;20469;-82
2024/02/05 00:50:32;;;;;;;18.33;4.20;;;;;;;;;;5111554;28;20171;-83
2024/02/05 00:52:58;;;;;;;7.70;3.87;;;;;;;;;;5110180;28;20939;-83
2024/02/05 00:55:24;;;;;;;17.13;3.90;;;;;;;;;;5115273;28;20406;-83
2024/02/05 00:57:50;;;;;;;15.83;8.60;;;;;;;;;;5117407;28;20769;-82
2024/02/05 01:00:16;;;;;;;23.90;3.93;;;;;;;;;;5117406;28;20233;-83
2024/02/05 01:02:42;;;;;;;14.50;4.13;;;;;;;;;;5116878;28;20715;-82
2024/02/05 01:05:08;;;;;;;18.00;4.10;;;;;;;;;;5117267;28;20457;-81
2024/02/05 01:07:34;;;;;;;23.97;5.47;;;;;;;;;;5117149;28;20200;-82
2024/02/05 01:10:00;;;;;;;16.33;5.00;;;;;;;;;;5117171;28;20470;-82
2024/02/05 01:12:26;;;;;;;27.10;6.60;;;;;;;;;;5117108;28;20991;-82
2024/02/05 01:14:52;;;;;;;22.40;6.70;;;;;;;;;;5115788;28;20422;-80
2024/02/05 01:17:18;;;;;;;20.63;6.50;;;;;;;;;;5116733;28;20412;-81
2024/02/05 01:19:44;;;;;;;14.50;4.83;;;;;;;;;;5117008;28;20416;-82
2024/02/05 01:22:10;;;;;;;19.50;5.33;;;;;;;;;;5129264;27;20493;-82
2024/02/05 01:24:36;;;;;;;16.30;5.83;;;;;;;;;;5119074;27;20938;-80
2024/02/05 01:27:02;;;;;;;16.70;5.17;;;;;;;;;;5137482;27;20404;-81
2024/02/05 01:29:28;;;;;;;20.03;5.77;;;;;;;;;;5137303;27;20471;-82
2024/02/05 01:31:54;;;;;;;15.80;5.30;;;;;;;;;;5136919;27;20400;-81
2024/02/05 01:34:20;;;;;;;20.57;5.70;;;;;;;;;;5137269;27;20623;-81
2024/02/05 01:36:46;;;;;;;12.33;3.93;;;;;;;;;;5118945;27;20417;-83
2024/02/05 01:39:12;;;;;;;16.73;6.00;;;;;;;;;;5137219;27;20821;-81
2024/02/05 01:41:38;;;;;;;17.33;4.10;;;;;;;;;;5137183;27;20408;-80
2024/02/05 01:44:04;;;;;;;21.73;4.73;;;;;;;;;;5137088;27;20473;-81
2024/02/05 01:46:32;;;;;;;19.07;4.97;;;;;;;;;;5118712;27;20521;-81
2024/02/05 01:49:00;;;;;;;18.00;5.07;;;;;;;;;;5136574;27;20463;-80
2024/02/05 01:51:27;;;;;;;10.63;3.57;;;;;;;;;;5136928;27;20465;-81
2024/02/05 01:53:55;;;;;;;15.53;3.77;;;;;;;;;;5136940;27;20421;-79
2024/02/05 01:56:28;;;;;;;13.20;3.23;;;;;;;;;;5136856;27;20898;-80
2024/02/05 01:58:54;;;;;;;14.30;4.13;;;;;;;;;;5136943;27;20398;-80
2024/02/05 02:01:20;;;;;;;7.40;3.23;;;;;;;;;;5136781;27;20814;-79
2024/02/05 02:03:51;;;;;;;13.70;4.10;;;;;;;;;;5136354;27;20414;-80
2024/02/05 02:06:17;;;;;;;9.23;3.60;;;;;;;;;;5136737;27;20404;-81
2024/02/05 02:08:43;;;;;;;13.13;4.00;;;;;;;;;;5136559;27;20471;-80
2024/02/05 02:11:09;;;;;;;16.40;5.40;;;;;;;;;;5136648;27;20402;-81
2024/02/05 02:13:38;;;;;;;13.23;4.40;;;;;;;;;;5118492;27;20960;-80
2024/02/05 02:16:07;;;;;;;19.47;5.30;;;;;;;;;;5136547;27;20840;-79
2024/02/05 02:18:33;;;;;;;19.90;5.20;;;;;;;;;;5136071;27;20418;-79
2024/02/05 02:21:00;;;;;;;16.30;4.27;;;;;;;;;;5136163;27;20413;-81
2024/02/05 02:23:29;;;;;;;17.27;3.73;;;;;;;;;;5136482;27;20421;-79
2024/02/05 02:25:59;;;;;;;17.73;4.67;;;;;;;;;;5136391;27;20467;-80
2024/02/05 02:28:25;;;;;;;12.77;2.90;;;;;;;;;;5136209;27;20463;-79
2024/02/05 02:30:52;;;;;;;14.40;5.30;;;;;;;;;;5136302;27;20801;-81
2024/02/05 02:33:26;;;;;;;9.70;4.20;;;;;;;;;;5125530;27;20909;-80
2024/02/05 02:36:00;;;;;;;10.30;4.80;;;;;;;;;;5115642;28;20403;-81
2024/02/05 02:38:33;;;;;;;12.13;3.60;;;;;;;;;;5115708;28;20417;-80
2024/02/05 02:41:01;;;;;;;13.67;3.90;;;;;;;;;;5115440;28;20455;-81
2024/02/05 02:43:27;;;;;;;14.87;4.30;;;;;;;;;;5115450;28;20413;-80
2024/02/05 02:45:53;;;;;;;12.40;4.40;;;;;;;;;;5115110;28;20546;-81
2024/02/05 02:48:19;;;;;;;9.63;3.60;;;;;;;;;;5115044;28;20565;-80
2024/02/05 02:50:45;;;;;;;11.10;3.50;;;;;;;;;;5115272;28;20401;-81
2024/02/05 02:53:11;;;;;;;13.13;3.77;;;;;;;;;;5115306;28;20415;-81
2024/02/05 02:55:37;;;;;;;18.80;4.37;;;;;;;;;;5115236;28;20506;-81
2024/02/05 02:58:06;;;;;;;10.70;3.73;;;;;;;;;;5115239;28;20410;-81
2024/02/05 03:00:32;;;;;;;14.70;3.37;;;;;;;;;;5115044;28;20177;-82
2024/02/05 03:02:58;;;;;;;15.10;3.90;;;;;;;;;;5114530;28;20418;-84
2024/02/05 03:05:24;;;;;;;14.73;3.30;;;;;;;;;;5114952;28;20840;-80
2024/02/05 03:07:50;;;;;;;14.37;3.33;;;;;;;;;;5114832;28;20495;-81
2024/02/05 03:10:16;;;;;;;16.87;5.07;;;;;;;;;;5114873;28;20172;-82
2024/02/05 03:12:42;;;;;;;10.10;3.23;;;;;;;;;;5114870;28;20168;-81
2024/02/05 03:15:11;;;;;;;16.20;4.20;;;;;;;;;;5096572;28;20425;-81
2024/02/05 03:17:37;;;;;;;10.27;4.87;;;;;;;;;;5113987;28;20442;-80
2024/02/05 03:20:05;;;;;;;14.27;4.80;;;;;;;;;;5114745;28;20424;-83
2024/02/05 03:22:31;;;;;;;15.40;6.00;;;;;;;;;;5114561;28;20521;-80
2024/02/05 03:24:57;;;;;;;13.93;3.70;;;;;;;;;;5114623;28;20888;-81
2024/02/05 03:27:22;;;;;;;15.63;5.43;;;;;;;;;;5114369;28;20430;-80
2024/02/05 03:29:48;;;;;;;13.40;5.47;;;;;;;;;;5114528;28;20173;-83
2024/02/05 03:32:14;;;;;;;19.60;5.87;;;;;;;;;;5114135;28;20889;-81
2024/02/05 03:34:40;;;;;;;15.57;5.13;;;;;;;;;;5114457;28;20450;-81
2024/02/05 03:37:06;;;;;;;17.33;5.60;;;;;;;;;;5096115;28;20765;-82
2024/02/05 03:39:32;;;;;;;13.70;6.00;;;;;;;;;;5114374;28;20891;-80
2024/02/05 03:42:01;;;;;;;20.17;6.50;;;;;;;;;;5096082;28;20513;-81
2024/02/05 03:44:27;;;;;;;19.77;7.13;;;;;;;;;;5114173;28;20409;-82
2024/02/05 03:46:53;;;;;;;17.57;5.20;;;;;;;;;;5114007;28;20455;-82
2024/02/05 03:49:19;;;;;;;14.10;5.73;;;;;;;;;;5114058;28;20515;-80
2024/02/05 03:51:45;;;;;;;13.10;5.60;;;;;;;;;;5114167;28;20497;-80
2024/02/05 03:54:11;;;;;;;17.17;5.60;;;;;;;;;;5114037;28;20429;-80
2024/02/05 03:56:38;;;;;;;21.67;5.07;;;;;;;;;;5114127;28;20199;-81
2024/02/05 03:59:04;;;;;;;19.90;4.87;;;;;;;;;;5114004;28;20417;-80
2024/02/05 04:01:30;;;;;;;15.13;5.00;;;;;;;;;;5113581;28;20965;-81
2024/02/05 04:03:56;;;;;;;18.90;3.83;;;;;;;;;;5095611;28;20448;-82
2024/02/05 04:06:22;;;;;;;17.43;6.30;;;;;;;;;;5095607;28;20418;-81
2024/02/05 04:08:48;;;;;;;15.33;3.63;;;;;;;;;;5113738;28;20873;-80
2024/02/05 04:11:14;;;;;;;13.73;3.33;;;;;;;;;;5095583;28;20509;-80
2024/02/05 04:13:40;;;;;;;27.47;6.13;;;;;;;;;;5113718;28;20219;-82
2024/02/05 04:16:07;;;;;;;20.27;5.00;;;;;;;;;;5095486;28;20172;-81
2024/02/05 04:18:33;;;;;;;26.07;6.57;;;;;;;;;;5095119;28;20783;-82
2024/02/05 04:21:03;;;;;;;19.80;5.23;;;;;;;;;;5113530;28;20490;-80
2024/02/05 04:23:29;;;;;;;19.30;5.27;;;;;;;;;;5113617;28;20467;-80
2024/02/05 04:25:55;;;;;;;23.33;5.60;;;;;;;;;;5095160;28;20418;-80
2024/02/05 04:28:21;;;;;;;28.40;6.30;;;;;;;;;;5112790;28;20470;-81
2024/02/05 04:30:47;;;;;;;17.90;5.57;;;;;;;;;;5113420;28;20402;-81
2024/02/05 04:33:13;;;;;;;19.50;5.43;;;;;;;;;;5113163;28;20803;-81
2024/02/05 04:35:39;;;;;;;19.13;4.97;;;;;;;;;;5113467;28;20410;-80
2024/02/05 04:38:05;;;;;;;15.93;5.17;;;;;;;;;;5113454;28;20458;-82
2024/02/05 04:40:31;;;;;;;17.87;4.87;;;;;;;;;;5095411;28;20176;-81
2024/02/05 04:42:57;;;;;;;26.37;5.17;;;;;;;;;;5113470;28;20457;-82
2024/02/05 04:45:22;;;;;;;22.80;5.20;;;;;;;;;;5113407;28;20488;-81
2024/02/05 04:47:48;;;;;;;24.60;5.43;;;;;;;;;;5094740;28;20579;-80
2024/02/05 04:50:14;;;;;;;17.90;4.03;;;;;;;;;;5113396;28;20334;-81
2024/02/05 04:52:43;;;;;;;25.83;5.07;;;;;;;;;;5113337;28;20402;-82
2024/02/05 04:55:09;;;;;;;28.03;6.17;;;;;;;;;;5113351;28;20515;-81
2024/02/05 04:57:35;;;;;;;18.83;5.13;;;;;;;;;;5113394;28;20418;-80
2024/02/05 05:00:01;;;;;;;25.70;7.07;;;;;;;;;;5113288;28;20411;-81
2024/02/05 05:02:27;;;;;;;23.40;6.90;;;;;;;;;;5094605;28;20223;-81
2024/02/05 05:04:54;;;;;;;27.73;6.20;;;;;;;;;;5113131;28;20506;-80
2024/02/05 05:07:19;;;;;;;24.73;7.03;;;;;;;;;;5113191;28;20175;-82
2024/02/05 05:09:45;;;;;;;32.93;7.23;;;;;;;;;;5113128;28;20445;-80
2024/02/05 05:12:11;;;;;;;29.50;7.50;;;;;;;;;;5113118;28;20893;-81
2024/02/05 05:14:37;;;;;;;25.27;6.20;;;;;;;;;;5094964;28;20406;-80
2024/02/05 05:17:03;;;;;;;21.73;7.53;;;;;;;;;;5112717;28;21023;-81
2024/02/05 05:19:29;;;;;;;31.57;8.60;;;;;;;;;;5094794;28;20418;-82
2024/02/05 05:21:55;;;;;;;29.73;8.53;;;;;;;;;;5112668;28;20572;-82
2024/02/05 05:24:41;;;;;;;36.80;10.07;;;;;;;;;;5112752;28;20776;-81
2024/02/05 05:27:07;;;;;;;42.70;9.57;;;;;;;;;;5096558;28;20408;-82
2024/02/05 05:29:36;;;;;;;30.10;9.33;;;;;;;;;;5112751;28;20513;-81
2024/02/05 05:32:05;;;;;;;34.70;8.97;;;;;;;;;;5112623;28;20624;-81
2024/02/05 05:34:31;;;;;;;36.63;9.57;;;;;;;;;;5112737;28;20744;-81
2024/02/05 05:36:57;;;;;;;31.90;6.87;;;;;;;;;;5112900;28;20403;-80
2024/02/05 05:39:22;;;;;;;31.87;6.87;;;;;;;;;;5112869;28;20475;-81
2024/02/05 05:41:48;;;;;;;25.80;5.90;;;;;;;;;;5116563;28;20450;-81
2024/02/05 05:44:14;;;;;;;27.03;6.80;;;;;;;;;;5116605;28;20501;-82
2024/02/05 05:46:40;;;;;;;22.97;7.10;;;;;;;;;;5116331;28;20903;-83
2024/02/05 05:49:06;;;;;;;20.87;6.73;;;;;;;;;;5098128;28;20971;-82
2024/02/05 05:51:32;;;;;;;29.20;8.23;;;;;;;;;;5116402;28;20219;-81
2024/02/05 05:53:58;;;;;;;21.30;6.30;;;;;;;;;;5116354;28;20421;-82
2024/02/05 05:56:24;;;;;;;26.87;7.10;;;;;;;;;;5116276;28;20416;-82
2024/02/05 05:58:52;;;;;;;27.23;8.17;;;;;;;;;;5116267;28;20443;-81
2024/02/05 06:01:18;;;;;;;18.07;6.40;;;;;;;;;;5115880;28;20781;-81
2024/02/05 06:03:44;;;;;;;21.27;5.97;;;;;;;;;;5116254;28;20467;-82
2024/02/05 06:06:12;;;;;;;19.67;6.07;;;;;;;;;;5097637;28;20409;-82
2024/02/05 06:08:38;;;;;;;20.50;5.50;;;;;;;;;;5116070;28;20471;-83
2024/02/05 06:11:04;;;;;;;18.60;5.80;;;;;;;;;;5116036;28;20404;-82
2024/02/05 06:13:31;;;;;;;18.60;5.77;;;;;;;;;;5115898;28;20776;-80
2024/02/05 06:15:57;;;;;;;15.10;4.63;;;;;;;;;;5116034;28;20186;-81
2024/02/05 06:18:23;;;;;;;9.07;4.10;;;;;;;;;;5115718;28;20414;-82
2024/02/05 06:20:49;;;;;;;20.40;5.20;;;;;;;;;;5115688;28;20494;-82
2024/02/05 06:23:14;;;;;;;18.13;5.53;;;;;;;;;;5097147;28;20426;-82
2024/02/05 06:25:43;;;;;;;24.83;5.73;;;;;;;;;;5115148;28;20505;-81
2024/02/05 06:28:09;;;;;;;15.83;5.40;;;;;;;;;;5114202;28;21003;-82
2024/02/05 06:30:37;;;;;;;20.77;4.83;;;;;;;;;;5097342;28;20958;-80
2024/02/05 06:33:03;;;;;;;18.77;6.33;;;;;;;;;;5095776;28;20499;-80
2024/02/05 06:35:29;;;;;;;18.97;5.77;;;;;;;;;;5115479;28;20402;-82
2024/02/05 06:37:55;;;;;;;25.33;7.80;;;;;;;;;;5097011;28;20413;-80
2024/02/05 06:40:24;;;;;;;23.90;6.07;;;;;;;;;;5115491;28;20417;-80
2024/02/05 06:42:50;;;;;;;19.10;5.30;;;;;;;;;;5115253;28;20733;-81
2024/02/05 06:45:16;;;;;;;22.90;5.67;;;;;;;;;;5115455;28;20769;-81
2024/02/05 06:47:42;;;;;;;21.70;6.03;;;;;;;;;;5096656;28;20456;-81
2024/02/05 06:50:10;;;;;;;10.00;3.67;;;;;;;;;;5115211;28;20417;-80
2024/02/05 06:52:36;;;;;;;22.13;4.57;;;;;;;;;;5114420;28;20413;-81
2024/02/05 06:55:02;;;;;;;21.40;7.03;;;;;;;;;;5115289;28;20886;-82
2024/02/05 06:57:28;;;;;;;23.00;5.80;;;;;;;;;;5115155;28;20456;-82
2024/02/05 06:59:53;;;;;;;22.20;5.70;;;;;;;;;;5096874;28;20484;-82
2024/02/05 07:02:19;;;;;;;18.03;5.30;;;;;;;;;;5114728;28;20413;-82
2024/02/05 07:04:48;;;;;;;21.43;6.33;;;;;;;;;;5114824;28;20207;-82
2024/02/05 07:07:20;;;;;;;27.63;8.60;;;;;;;;;;5114878;28;20816;-81
2024/02/05 07:09:47;;;;;;;27.87;6.83;;;;;;;;;;5114734;28;20907;-81
2024/02/05 07:12:13;;;;;;;36.40;9.70;;;;;;;;;;5114603;28;20402;-82
2024/02/05 07:14:39;;;;;;;24.53;7.43;;;;;;;;;;5114591;28;20463;-81
2024/02/05 07:17:05;;;;;;;25.23;6.93;;;;;;;;;;5114158;28;20446;-81
2024/02/05 07:19:31;;;;;;;29.97;8.03;;;;;;;;;;5114663;28;20446;-81
2024/02/05 07:21:57;;;;;;;30.07;8.03;;;;;;;;;;5108001;28;20551;-82
2024/02/05 07:24:22;;;;;;;31.03;7.93;;;;;;;;;;5114647;28;20959;-81
2024/02/05 07:26:48;;;;;;;40.37;9.33;;;;;;;;;;5114484;28;20406;-81
2024/02/05 07:29:15;;;;;;;32.13;7.53;;;;;;;;;;5096010;28;21062;-81
2024/02/05 07:31:41;;;;;;;24.47;8.27;;;;;;;;;;5095877;28;20410;-81
2024/02/05 07:34:07;;;;;;;28.17;9.33;;;;;;;;;;5114436;28;20924;-81
2024/02/05 07:36:33;;;;;;;36.00;9.10;;;;;;;;;;5114435;28;20507;-81
2024/02/05 07:38:59;;;;;;;32.47;9.97;;;;;;;;;;5114196;28;20434;-81
2024/02/05 07:41:25;;;;;;;26.10;11.30;;;;;;;;;;5114281;28;20496;-80
2024/02/05 07:43:51;;;;;;;40.00;8.80;;;;;;;;;;5114429;28;20189;-80
2024/02/05 07:46:17;;;;;;;26.33;9.37;;;;;;;;;;5113917;28;20402;-80
2024/02/05 07:48:43;;;;;;;45.23;8.67;;;;;;;;;;5114031;28;20993;-81
2024/02/05 07:51:09;;;;;;;37.37;9.70;;;;;;;;;;5114211;28;20413;-81
2024/02/05 07:53:35;;;;;;;29.70;8.83;;;;;;;;;;5095849;28;20497;-81
2024/02/05 07:56:05;;;;;;;28.40;9.33;;;;;;;;;;5114050;28;20437;-82
2024/02/05 07:58:31;;;;;;;27.53;8.50;;;;;;;;;;5114128;28;20868;-81
2024/02/05 08:00:57;;;;;;;39.43;8.60;;;;;;;;;;5113641;28;20406;-82
2024/02/05 08:03:23;;;;;;;38.50;8.80;;;;;;;;;;5113873;28;20420;-83
2024/02/05 08:05:49;;;;;;;26.63;8.20;;;;;;;;;;5095698;28;20920;-84
2024/02/05 08:08:15;;;;;;;27.07;6.60;;;;;;;;;;5095528;28;20991;-81
2024/02/05 08:10:41;;;;;;;33.00;7.90;;;;;;;;;;5113979;28;20415;-82
2024/02/05 08:13:07;;;;;;;29.20;10.23;;;;;;;;;;5113881;28;20901;-83
2024/02/05 08:15:33;;;;;;;24.30;6.53;;;;;;;;;;5095623;28;20957;-81
2024/02/05 08:18:00;;;;;;;23.43;6.77;;;;;;;;;;5113543;28;20449;-82
2024/02/05 08:20:26;;;;;;;27.13;7.80;;;;;;;;;;5113886;28;20754;-82
2024/02/05 08:22:52;;;;;;;21.87;6.73;;;;;;;;;;5095364;28;20466;-81
2024/02/05 08:25:18;;;;;;;37.77;8.97;;;;;;;;;;5092251;28;20898;-80
2024/02/05 08:27:44;;;;;;;26.33;8.20;;;;;;;;;;5093418;28;20476;-81
2024/02/05 08:30:10;;;;;;;33.53;6.97;;;;;;;;;;5093401;28;20944;-81
2024/02/05 08:32:36;;;;;;;26.90;6.97;;;;;;;;;;5093167;28;20482;-80
2024/02/05 08:35:03;;;;;;;35.63;8.17;;;;;;;;;;5093596;28;20452;-82
2024/02/05 08:37:29;;;;;;;25.03;6.50;;;;;;;;;;5092447;28;20957;-80
2024/02/05 08:39:55;;;;;;;26.23;6.77;;;;;;;;;;5093580;28;20425;-80
2024/02/05 08:42:21;;;;;;;33.40;8.70;;;;;;;;;;5093387;28;20403;-81
2024/02/05 08:44:47;;;;;;;26.07;6.57;;;;;;;;;;5093388;28;20771;-81
2024/02/05 08:47:13;;;;;;;21.33;6.27;;;;;;;;;;5092869;28;20406;-81
2024/02/05 08:49:42;;;;;;;40.53;8.20;;;;;;;;;;5093108;28;20879;-78
2024/02/05 08:52:09;;;;;;;28.23;6.27;;;;;;;;;;5093285;28;20414;-81
2024/02/05 08:54:35;;;;;;;21.87;6.33;;;;;;;;;;5093344;28;20760;-84
2024/02/05 08:57:07;;;;;;;25.07;6.17;;;;;;;;;;5093662;28;20410;-81
2024/02/05 08:59:33;;;;;;;20.37;5.13;;;;;;;;;;5093689;28;20414;-82
2024/02/05 09:01:59;;;;;;;24.40;5.10;;;;;;;;;;5093136;28;20477;-80
2024/02/05 09:04:28;;;;;;;25.03;7.03;;;;;;;;;;5093773;28;20407;-81
2024/02/05 09:06:54;;;;;;;19.30;4.83;;;;;;;;;;5093625;28;20399;-80
2024/02/05 09:09:20;;;;;;;21.87;6.07;;;;;;;;;;5093484;28;20461;-83
2024/02/05 09:11:47;;;;;;;20.83;6.17;;;;;;;;;;5093675;28;20756;-82
2024/02/05 09:14:13;;;;;;;19.03;4.20;;;;;;;;;;5093309;28;20419;-81
2024/02/05 09:16:39;;;;;;;30.47;5.43;;;;;;;;;;5097315;28;20418;-87
2024/02/05 09:19:05;;;;;;;25.30;7.13;;;;;;;;;;5096762;28;20620;-84
2024/02/05 09:21:31;;;;;;;26.20;5.67;;;;;;;;;;5104339;28;20454;-81
2024/02/05 09:23:57;;;;;;;19.97;5.00;;;;;;;;;;5117958;28;20416;-80
2024/02/05 09:26:23;;;;;;;16.27;4.60;;;;;;;;;;5117698;28;20489;-79
2024/02/05 09:28:49;;;;;;;18.37;4.23;;;;;;;;;;5099437;28;20469;-80
2024/02/05 09:31:15;;;;;;;18.70;4.37;;;;;;;;;;5117305;28;20401;-80
2024/02/05 09:33:44;;;;;;;32.37;8.57;;;;;;;;;;5117827;28;20415;-79
2024/02/05 09:36:10;;;;;;;17.03;4.00;;;;;;;;;;5117811;28;20442;-79
2024/02/05 09:38:36;;;;;;;22.43;5.73;;;;;;;;;;5117667;28;20412;-81
2024/02/05 09:41:05;;;;;;;22.07;7.90;;;;;;;;;;5117788;28;20476;-79
2024/02/05 09:43:32;;;;;;;17.20;5.43;;;;;;;;;;5117415;28;20431;-79
2024/02/05 09:46:01;;;;;;;25.93;7.30;;;;;;;;;;5116924;28;20438;-80
2024/02/05 09:48:27;;;;;;;16.53;5.20;;;;;;;;;;5117291;28;20518;-83
2024/02/05 09:50:53;;;;;;;23.70;5.73;;;;;;;;;;5117384;28;20417;-81
2024/02/05 09:53:20;;;;;;;23.20;4.93;;;;;;;;;;5117068;28;20407;-81
2024/02/05 09:55:46;;;;;;;29.50;6.70;;;;;;;;;;5117414;28;20502;-83
2024/02/05 09:58:12;;;;;;;18.87;5.03;;;;;;;;;;5116460;28;20410;-80
2024/02/05 10:00:39;;;;;;;19.47;6.20;;;;;;;;;;5116067;28;20413;-80
2024/02/05 10:03:05;;;;;;;21.20;4.87;;;;;;;;;;5116275;28;20460;-79
2024/02/05 10:05:31;;;;;;;23.00;5.97;;;;;;;;;;5098109;28;20418;-80
2024/02/05 10:07:58;;;;;;;20.37;4.83;;;;;;;;;;5116392;28;20457;-81
2024/02/05 10:10:26;;;;;;;20.17;6.07;;;;;;;;;;5116216;28;20417;-80
2024/02/05 10:12:52;;;;;;;22.10;4.80;;;;;;;;;;5116314;28;20730;-80
2024/02/05 10:15:19;;;;;;;28.00;7.00;;;;;;;;;;5116262;28;20504;-80
2024/02/05 10:17:45;;;;;;;19.63;5.67;;;;;;;;;;5116028;28;20493;-81
2024/02/05 10:20:12;;;;;;;18.57;5.80;;;;;;;;;;5115918;28;20970;-80
2024/02/05 10:22:46;;;;;;;20.93;5.20;;;;;;;;;;5097408;28;20540;-80
2024/02/05 10:25:12;;;;;;;18.87;5.50;;;;;;;;;;5115844;28;20425;-80
2024/02/05 10:27:39;;;;;;;18.03;5.07;;;;;;;;;;5114439;28;20402;-82
2024/02/05 10:30:05;;;;;;;21.57;6.27;;;;;;;;;;5115723;28;20413;-81
2024/02/05 10:32:32;;;;;;;29.93;6.53;;;;;;;;;;5115313;28;20802;-81
2024/02/05 10:34:58;;;;;;;20.33;8.13;;;;;;;;;;5115657;28;20494;-80
2024/02/05 10:37:24;;;;;;;14.63;5.60;;;;;;;;;;5115618;28;20450;-80
2024/02/05 10:39:50;;;;;;;25.63;6.30;;;;;;;;;;5115423;28;20461;-81
2024/02/05 10:42:16;;;;;;;19.80;5.97;;;;;;;;;;5115578;28;20398;-80
2024/02/05 10:44:43;;;;;;;15.40;4.90;;;;;;;;;;5115522;28;20989;-81
2024/02/05 10:47:12;;;;;;;16.90;4.73;;;;;;;;;;5114873;28;20410;-81
2024/02/05 10:49:39;;;;;;;24.37;5.63;;;;;;;;;;5096773;28;20500;-80
2024/02/05 10:52:05;;;;;;;29.93;6.00;;;;;;;;;;5115119;28;20969;-80
2024/02/05 10:54:33;;;;;;;23.17;7.40;;;;;;;;;;5115278;28;20457;-82
2024/02/05 10:57:00;;;;;;;19.97;5.10;;;;;;;;;;5115194;28;20397;-82
2024/02/05 10:59:26;;;;;;;16.47;6.10;;;;;;;;;;5115181;28;20500;-81
2024/02/05 11:01:55;;;;;;;17.03;6.50;;;;;;;;;;5114694;28;20473;-83
2024/02/05 11:04:22;;;;;;;17.90;6.20;;;;;;;;;;5115013;28;20462;-81
2024/02/05 11:06:48;;;;;;;17.10;4.87;;;;;;;;;;5115018;28;20398;-82
2024/02/05 11:09:15;;;;;;;19.00;5.50;;;;;;;;;;5114581;28;20470;-83
2024/02/05 11:11:42;;;;;;;25.20;5.90;;;;;;;;;;5114800;28;20405;-82
2024/02/05 11:14:10;;;;;;;20.47;5.53;;;;;;;;;;5114751;28;20442;-82
2024/02/05 11:16:37;;;;;;;17.53;5.80;;;;;;;;;;5114812;28;20966;-82
2024/02/05 11:19:05;;;;;;;21.67;6.10;;;;;;;;;;5114739;28;20417;-82
2024/02/05 11:21:33;;;;;;;19.10;6.67;;;;;;;;;;5093293;28;20524;-82
2024/02/05 11:23:59;;;;;;;18.50;5.60;;;;;;;;;;5094300;28;20413;-81
2024/02/05 11:26:26;;;;;;;21.70;5.87;;;;;;;;;;5093014;28;20939;-81
2024/02/05 11:28:55;;;;;;;13.13;4.50;;;;;;;;;;5094070;28;20515;-81
2024/02/05 11:31:25;;;;;;;20.60;6.70;;;;;;;;;;5075186;28;20419;-82
2024/02/05 11:33:58;;;;;;;20.47;6.50;;;;;;;;;;5085871;28;20429;-82
2024/02/05 11:36:24;;;;;;;17.33;5.87;;;;;;;;;;5094077;28;20773;-80
2024/02/05 11:38:49;;;;;;;21.57;6.80;;;;;;;;;;5093711;28;20787;-80
2024/02/05 11:41:22;;;;;;;21.57;6.73;;;;;;;;;;5093985;28;20409;-82
2024/02/05 11:43:48;;;;;;;21.47;6.20;;;;;;;;;;5093902;28;20712;-81
2024/02/05 11:46:23;;;;;;;20.07;5.23;;;;;;;;;;5093664;28;20482;-81
2024/02/05 11:48:49;;;;;;;16.47;6.10;;;;;;;;;;5092728;28;20499;-80
2024/02/05 11:51:16;;;;;;;24.03;7.70;;;;;;;;;;5093973;28;20398;-81
2024/02/05 11:53:46;;;;;;;15.77;5.00;;;;;;;;;;5093992;28;20406;-80
2024/02/05 11:56:12;;;;;;;19.43;5.17;;;;;;;;;;5094047;28;20448;-80
2024/02/05 11:58:38;;;;;;;17.27;5.07;;;;;;;;;;5093872;28;20403;-80
2024/02/05 12:01:05;;;;;;;12.73;5.30;;;;;;;;;;5093527;28;20422;-81
2024/02/05 12:03:31;;;;;;;17.03;5.23;;;;;;;;;;5093902;28;20430;-80
2024/02/05 12:05:57;;;;;;;22.07;5.70;;;;;;;;;;5093809;28;20445;-80
2024/02/05 12:08:23;;;;;;;16.23;5.43;;;;;;;;;;5093720;28;20462;-80
2024/02/05 12:10:49;;;;;;;13.03;4.83;;;;;;;;;;5093493;28;20411;-82
2024/02/05 12:13:18;;;;;;;24.33;6.23;;;;;;;;;;5092567;28;20805;-81
2024/02/05 12:15:44;;;;;;;18.60;4.50;;;;;;;;;;5093572;28;20449;-80
2024/02/05 12:18:10;;;;;;;16.63;4.97;;;;;;;;;;5093611;28;20797;-80
2024/02/05 12:20:36;;;;;;;15.87;5.63;;;;;;;;;;5093634;28;20464;-81
2024/02/05 12:23:04;;;;;;;17.93;5.73;;;;;;;;;;5106256;28;20956;-81
2024/02/05 12:25:30;;;;;;;17.70;5.83;;;;;;;;;;5114282;28;20418;-82
2024/02/05 12:27:55;;;;;;;24.87;5.90;;;;;;;;;;5113841;28;20482;-80
2024/02/05 12:30:21;;;;;;;15.53;5.00;;;;;;;;;;5113169;28;20975;-80
2024/02/05 12:32:54;;;;;;;18.47;5.30;;;;;;;;;;5113337;28;20404;-81
2024/02/05 12:35:20;;;;;;;24.47;7.50;;;;;;;;;;5113417;28;20406;-81
2024/02/05 12:37:48;;;;;;;21.03;6.23;;;;;;;;;;5113379;28;20528;-79
2024/02/05 12:40:14;;;;;;;26.10;5.83;;;;;;;;;;5095159;28;20425;-80
2024/02/05 12:42:40;;;;;;;19.13;5.83;;;;;;;;;;5113462;28;20407;-80
2024/02/05 12:45:07;;;;;;;23.13;6.20;;;;;;;;;;5112860;28;20408;-81
2024/02/05 12:47:33;;;;;;;19.13;6.70;;;;;;;;;;5094805;28;20412;-82
2024/02/05 12:49:59;;;;;;;29.23;6.20;;;;;;;;;;5114281;28;21005;-81
2024/02/05 12:52:26;;;;;;;18.97;5.30;;;;;;;;;;5117424;28;20413;-80
2024/02/05 12:54:52;;;;;;;20.43;5.50;;;;;;;;;;5104139;28;20430;-81
2024/02/05 12:57:18;;;;;;;15.70;5.07;;;;;;;;;;5097080;28;20402;-81
2024/02/05 12:59:44;;;;;;;17.67;4.17;;;;;;;;;;5097034;28;20511;-81
2024/02/05 13:02:17;;;;;;;16.90;4.50;;;;;;;;;;5078450;28;20418;-81
2024/02/05 13:04:44;;;;;;;16.33;5.10;;;;;;;;;;5078752;28;20417;-80
2024/02/05 13:07:10;;;;;;;17.83;5.07;;;;;;;;;;5114440;28;20777;-81
2024/02/05 13:09:37;;;;;;;9.70;4.53;;;;;;;;;;5109749;28;20470;-79
2024/02/05 13:12:03;;;;;;;14.20;5.07;;;;;;;;;;5099806;28;20419;-78
2024/02/05 13:14:29;;;;;;;16.47;5.33;;;;;;;;;;5118078;28;20417;-79
2024/02/05 13:17:03;;;;;;;11.53;4.50;;;;;;;;;;5117454;28;20411;-80
2024/02/05 13:19:29;;;;;;;22.53;5.07;;;;;;;;;;5114526;28;20413;-80
2024/02/05 13:21:55;;;;;;;21.90;5.50;;;;;;;;;;5097234;28;20846;-80
2024/02/05 13:24:21;;;;;;;28.73;6.03;;;;;;;;;;5078755;28;20424;-82
2024/02/05 13:26:48;;;;;;;17.37;4.90;;;;;;;;;;5096891;28;20486;-82
2024/02/05 13:29:16;;;;;;;16.07;5.07;;;;;;;;;;5097056;28;20473;-81
2024/02/05 13:31:42;;;;;;;20.40;4.63;;;;;;;;;;5096847;28;20446;-82
2024/02/05 13:34:09;;;;;;;15.88;5.20;;;;;;;;;;5095543;28;20416;-80
2024/02/05 13:36:35;;;;;;;14.77;4.60;;;;;;;;;;5096428;28;20410;-79
2024/02/05 13:39:06;;;;;;;19.93;5.33;;;;;;;;;;5096388;28;20422;-82
2024/02/05 13:41:41;;;;;;;13.70;5.00;;;;;;;;;;5096489;28;20493;-80
2024/02/05 13:44:08;;;;;;;16.27;5.53;;;;;;;;;;5096255;28;20419;-78
2024/02/05 13:46:34;;;;;;;18.97;4.27;;;;;;;;;;5095880;28;20871;-81
2024/02/05 13:49:00;;;;;;;16.42;4.32;;;;;;;;;;5095844;28;20928;-79
2024/02/05 13:51:26;;;;;;;16.10;4.70;;;;;;;;;;5096181;28;20569;-80
2024/02/05 13:53:52;;;;;;;12.90;4.00;;;;;;;;;;5096165;28;20403;-80
2024/02/05 13:56:18;;;;;;;19.67;5.40;;;;;;;;;;5111186;28;20435;-79
2024/02/05 13:58:44;;;;;;;13.13;3.77;;;;;;;;;;5098048;28;20418;-80
2024/02/05 14:01:11;;;;;;;19.57;4.57;;;;;;;;;;5115624;28;20431;-79
2024/02/05 14:03:37;;;;;;;14.93;4.10;;;;;;;;;;5075567;28;20434;-84
2024/02/05 14:06:03;;;;;;;15.70;4.63;;;;;;;;;;5086266;28;20402;-79
2024/02/05 14:08:30;;;;;;;17.57;5.83;;;;;;;;;;5105743;28;21197;-80
2024/02/05 14:10:56;;;;;;;14.50;4.53;;;;;;;;;;5095215;28;20497;-80
2024/02/05 14:13:22;;;;;;;14.23;4.60;;;;;;;;;;5094886;28;20389;-80
2024/02/05 14:15:49;;;;;;;14.90;4.70;;;;;;;;;;5094643;28;20425;-80
2024/02/05 14:18:15;;;;;;;11.43;4.17;;;;;;;;;;5095490;28;20410;-79
2024/02/05 14:20:41;;;;;;;13.30;4.40;;;;;;;;;;5094840;28;20414;-80
2024/02/05 14:23:07;;;;;;;10.77;3.90;;;;;;;;;;5104556;28;20428;-85
2024/02/05 14:25:33;;;;;;;14.37;3.90;;;;;;;;;;5104855;28;20420;-80
2024/02/05 14:27:59;;;;;;;12.80;4.07;;;;;;;;;;5106063;28;20507;-81